sensor_id;sensor_type;location;lat;lon;timestamp;P1;durP1;ratioP1;P2;durP2;ratioP2
34471;SDS011;20710;49.976;19.836;2023-03-23T00:00:57;21.80;;;14.50;;
34471;SDS011;20710;49.976;19.836;2023-03-23T00:06:59;26.70;;;17.10;;
34471;SDS011;20710;49.976;19.836;2023-03-23T00:13:27;26.10;;;16.40;;
34471;SDS011;20710;49.976;19.836;2023-03-23T00:19:32;25.70;;;16.30;;
34471;SDS011;20710;49.976;19.836;2023-03-23T00:25:35;27.40;;;16.30;;
34471;SDS011;20710;49.976;19.836;2023-03-23T00:31:58;29.30;;;18.20;;
34471;SDS011;20710;49.976;19.836;2023-03-23T00:38:00;30.60;;;18.90;;
34471;SDS011;20710;49.976;19.836;2023-03-23T00:44:48;36.40;;;20.90;;
34471;SDS011;20710;49.976;19.836;2023-03-23T00:51:12;32.80;;;20.70;;
34471;SDS011;20710;49.976;19.836;2023-03-23T00:57:45;33.10;;;21.10;;
34471;SDS011;20710;49.976;19.836;2023-03-23T01:04:48;34.90;;;23.20;;
34471;SDS011;20710;49.976;19.836;2023-03-23T01:11:00;41.60;;;24.00;;
34471;SDS011;20710;49.976;19.836;2023-03-23T01:17:08;38.60;;;24.00;;
34471;SDS011;20710;49.976;19.836;2023-03-23T01:23:58;38.90;;;23.50;;
34471;SDS011;20710;49.976;19.836;2023-03-23T01:29:59;40.50;;;26.60;;
34471;SDS011;20710;49.976;19.836;2023-03-23T01:36:04;41.40;;;26.80;;
34471;SDS011;20710;49.976;19.836;2023-03-23T01:42:12;39.00;;;25.30;;
34471;SDS011;20710;49.976;19.836;2023-03-23T01:48:16;36.00;;;23.70;;
34471;SDS011;20710;49.976;19.836;2023-03-23T01:54:57;34.00;;;22.30;;
34471;SDS011;20710;49.976;19.836;2023-03-23T02:01:42;35.80;;;22.50;;
34471;SDS011;20710;49.976;19.836;2023-03-23T02:07:47;38.80;;;23.20;;
34471;SDS011;20710;49.976;19.836;2023-03-23T02:14:45;34.60;;;21.70;;
34471;SDS011;20710;49.976;19.836;2023-03-23T02:34:25;33.00;;;21.00;;
34471;SDS011;20710;49.976;19.836;2023-03-23T02:40:46;30.70;;;18.70;;
34471;SDS011;20710;49.976;19.836;2023-03-23T02:46:50;29.60;;;19.30;;
34471;SDS011;20710;49.976;19.836;2023-03-23T02:53:05;26.60;;;17.00;;
34471;SDS011;20710;49.976;19.836;2023-03-23T02:59:27;23.30;;;15.20;;
34471;SDS011;20710;49.976;19.836;2023-03-23T03:06:17;28.90;;;17.10;;
34471;SDS011;20710;49.976;19.836;2023-03-23T03:12:44;28.80;;;18.50;;
34471;SDS011;20710;49.976;19.836;2023-03-23T03:19:17;25.60;;;16.60;;
34471;SDS011;20710;49.976;19.836;2023-03-23T03:25:40;21.30;;;12.70;;
34471;SDS011;20710;49.976;19.836;2023-03-23T03:31:44;19.10;;;12.90;;
34471;SDS011;20710;49.976;19.836;2023-03-23T03:38:07;20.20;;;13.50;;
34471;SDS011;20710;49.976;19.836;2023-03-23T03:44:11;27.20;;;14.60;;
34471;SDS011;20710;49.976;19.836;2023-03-23T03:50:13;26.40;;;16.80;;
34471;SDS011;20710;49.976;19.836;2023-03-23T03:56:29;28.70;;;16.30;;
34471;SDS011;20710;49.976;19.836;2023-03-23T04:02:46;28.90;;;16.80;;
34471;SDS011;20710;49.976;19.836;2023-03-23T04:09:20;30.00;;;17.30;;
34471;SDS011;20710;49.976;19.836;2023-03-23T04:15:44;33.70;;;18.50;;
34471;SDS011;20710;49.976;19.836;2023-03-23T04:22:47;30.10;;;17.00;;
34471;SDS011;20710;49.976;19.836;2023-03-23T04:29:10;36.40;;;18.00;;
34471;SDS011;20710;49.976;19.836;2023-03-23T04:35:55;50.80;;;21.50;;
34471;SDS011;20710;49.976;19.836;2023-03-23T04:42:22;32.80;;;16.60;;
34471;SDS011;20710;49.976;19.836;2023-03-23T04:49:16;23.00;;;11.70;;
34471;SDS011;20710;49.976;19.836;2023-03-23T04:56:18;29.40;;;15.90;;
34471;SDS011;20710;49.976;19.836;2023-03-23T05:02:45;31.40;;;17.30;;
34471;SDS011;20710;49.976;19.836;2023-03-23T05:09:29;41.50;;;18.80;;
34471;SDS011;20710;49.976;19.836;2023-03-23T05:15:57;34.30;;;20.00;;
34471;SDS011;20710;49.976;19.836;2023-03-23T05:22:22;32.00;;;20.40;;
34471;SDS011;20710;49.976;19.836;2023-03-23T05:28:26;34.90;;;21.90;;
34471;SDS011;20710;49.976;19.836;2023-03-23T05:35:13;28.50;;;18.80;;
34471;SDS011;20710;49.976;19.836;2023-03-23T05:41:16;31.30;;;18.70;;
34471;SDS011;20710;49.976;19.836;2023-03-23T05:47:18;27.80;;;17.50;;
34471;SDS011;20710;49.976;19.836;2023-03-23T05:53:26;23.10;;;15.00;;
34471;SDS011;20710;49.976;19.836;2023-03-23T05:59:47;25.70;;;14.50;;
34471;SDS011;20710;49.976;19.836;2023-03-23T06:07:04;31.40;;;16.50;;
34471;SDS011;20710;49.976;19.836;2023-03-23T06:13:48;30.50;;;16.80;;
34471;SDS011;20710;49.976;19.836;2023-03-23T06:19:50;23.30;;;14.90;;
34471;SDS011;20710;49.976;19.836;2023-03-23T06:25:53;28.80;;;14.90;;
34471;SDS011;20710;49.976;19.836;2023-03-23T06:32:01;28.50;;;14.20;;
34471;SDS011;20710;49.976;19.836;2023-03-23T06:38:25;24.90;;;13.60;;
34471;SDS011;20710;49.976;19.836;2023-03-23T06:45:30;24.00;;;13.00;;
34471;SDS011;20710;49.976;19.836;2023-03-23T06:51:57;18.30;;;9.90;;
34471;SDS011;20710;49.976;19.836;2023-03-23T06:58:18;10.50;;;6.00;;
34471;SDS011;20710;49.976;19.836;2023-03-23T07:04:20;9.00;;;4.20;;
34471;SDS011;20710;49.976;19.836;2023-03-23T07:11:24;6.00;;;4.00;;
34471;SDS011;20710;49.976;19.836;2023-03-23T07:17:33;8.70;;;4.20;;
34471;SDS011;20710;49.976;19.836;2023-03-23T07:24:20;6.60;;;3.90;;
34471;SDS011;20710;49.976;19.836;2023-03-23T07:31:23;5.20;;;3.30;;
34471;SDS011;20710;49.976;19.836;2023-03-23T07:37:25;6.30;;;3.90;;
34471;SDS011;20710;49.976;19.836;2023-03-23T07:43:32;10.50;;;5.10;;
34471;SDS011;20710;49.976;19.836;2023-03-23T07:49:46;5.80;;;3.90;;
34471;SDS011;20710;49.976;19.836;2023-03-23T07:56:14;5.70;;;4.10;;
34471;SDS011;20710;49.976;19.836;2023-03-23T08:03:00;5.70;;;4.10;;
34471;SDS011;20710;49.976;19.836;2023-03-23T08:09:39;6.50;;;3.70;;
34471;SDS011;20710;49.976;19.836;2023-03-23T08:16:43;4.90;;;3.20;;
34471;SDS011;20710;49.976;19.836;2023-03-23T08:23:03;4.60;;;3.10;;
34471;SDS011;20710;49.976;19.836;2023-03-23T08:29:26;7.30;;;3.40;;
34471;SDS011;20710;49.976;19.836;2023-03-23T08:35:40;6.70;;;3.60;;
34471;SDS011;20710;49.976;19.836;2023-03-23T08:49:11;4.70;;;3.10;;
34471;SDS011;20710;49.976;19.836;2023-03-23T09:03:22;4.40;;;2.90;;
34471;SDS011;20710;49.976;19.836;2023-03-23T09:09:44;7.90;;;2.60;;
34471;SDS011;20710;49.976;19.836;2023-03-23T09:15:46;5.80;;;2.60;;
34471;SDS011;20710;49.976;19.836;2023-03-23T09:21:47;8.00;;;2.30;;
34471;SDS011;20710;49.976;19.836;2023-03-23T09:28:10;3.40;;;2.50;;
34471;SDS011;20710;49.976;19.836;2023-03-23T09:34:16;6.70;;;3.10;;
34471;SDS011;20710;49.976;19.836;2023-03-23T09:40:25;4.40;;;2.20;;
34471;SDS011;20710;49.976;19.836;2023-03-23T09:46:59;3.10;;;2.40;;
34471;SDS011;20710;49.976;19.836;2023-03-23T09:53:44;4.10;;;2.40;;
34471;SDS011;20710;49.976;19.836;2023-03-23T10:06:41;3.80;;;2.40;;
34471;SDS011;20710;49.976;19.836;2023-03-23T10:12:50;4.00;;;2.20;;
34471;SDS011;20710;49.976;19.836;2023-03-23T10:32:00;2.90;;;1.90;;
34471;SDS011;20710;49.976;19.836;2023-03-23T10:38:14;2.90;;;2.10;;
34471;SDS011;20710;49.976;19.836;2023-03-23T10:44:20;3.20;;;1.80;;
34471;SDS011;20710;49.976;19.836;2023-03-23T10:50:42;5.00;;;2.30;;
34471;SDS011;20710;49.976;19.836;2023-03-23T10:56:45;2.00;;;1.40;;
34471;SDS011;20710;49.976;19.836;2023-03-23T11:09:13;3.10;;;2.10;;
34471;SDS011;20710;49.976;19.836;2023-03-23T11:21:30;2.80;;;2.10;;
34471;SDS011;20710;49.976;19.836;2023-03-23T11:27:33;4.00;;;2.10;;
34471;SDS011;20710;49.976;19.836;2023-03-23T11:33:42;4.80;;;2.70;;
34471;SDS011;20710;49.976;19.836;2023-03-23T11:52:33;4.00;;;2.30;;
34471;SDS011;20710;49.976;19.836;2023-03-23T11:59:33;2.70;;;1.90;;
34471;SDS011;20710;49.976;19.836;2023-03-23T12:05:54;5.50;;;2.20;;
34471;SDS011;20710;49.976;19.836;2023-03-23T12:12:17;6.30;;;2.60;;
34471;SDS011;20710;49.976;19.836;2023-03-23T12:18:46;4.60;;;2.20;;
34471;SDS011;20710;49.976;19.836;2023-03-23T13:00:25;5.40;;;2.50;;
34471;SDS011;20710;49.976;19.836;2023-03-23T13:07:02;8.60;;;3.50;;
34471;SDS011;20710;49.976;19.836;2023-03-23T13:26:42;12.40;;;3.60;;
34471;SDS011;20710;49.976;19.836;2023-03-23T13:32:46;9.50;;;4.20;;
34471;SDS011;20710;49.976;19.836;2023-03-23T13:39:18;9.20;;;3.80;;
34471;SDS011;20710;49.976;19.836;2023-03-23T13:59:04;13.90;;;3.70;;
34471;SDS011;20710;49.976;19.836;2023-03-23T14:11:55;6.30;;;2.60;;
34471;SDS011;20710;49.976;19.836;2023-03-23T14:17:58;8.80;;;2.80;;
34471;SDS011;20710;49.976;19.836;2023-03-23T14:24:06;9.70;;;2.40;;
34471;SDS011;20710;49.976;19.836;2023-03-23T14:30:18;8.00;;;2.40;;
34471;SDS011;20710;49.976;19.836;2023-03-23T14:42:44;5.30;;;2.10;;
34471;SDS011;20710;49.976;19.836;2023-03-23T14:49:09;5.80;;;2.90;;
34471;SDS011;20710;49.976;19.836;2023-03-23T14:55:19;5.40;;;3.20;;
34471;SDS011;20710;49.976;19.836;2023-03-23T15:01:29;8.50;;;3.10;;
34471;SDS011;20710;49.976;19.836;2023-03-23T15:08:18;6.70;;;3.20;;
34471;SDS011;20710;49.976;19.836;2023-03-23T15:14:27;6.10;;;3.60;;
34471;SDS011;20710;49.976;19.836;2023-03-23T15:21:12;7.10;;;3.10;;
34471;SDS011;20710;49.976;19.836;2023-03-23T15:27:41;9.50;;;3.90;;
34471;SDS011;20710;49.976;19.836;2023-03-23T15:33:45;9.80;;;3.80;;
34471;SDS011;20710;49.976;19.836;2023-03-23T15:39:46;12.30;;;4.40;;
34471;SDS011;20710;49.976;19.836;2023-03-23T15:46:03;7.70;;;3.70;;
34471;SDS011;20710;49.976;19.836;2023-03-23T15:52:37;12.90;;;4.10;;
34471;SDS011;20710;49.976;19.836;2023-03-23T15:58:42;7.30;;;3.90;;
34471;SDS011;20710;49.976;19.836;2023-03-23T16:05:04;10.30;;;4.80;;
34471;SDS011;20710;49.976;19.836;2023-03-23T16:11:08;7.40;;;4.60;;
34471;SDS011;20710;49.976;19.836;2023-03-23T16:17:30;8.40;;;4.70;;
34471;SDS011;20710;49.976;19.836;2023-03-23T16:23:53;7.60;;;5.50;;
34471;SDS011;20710;49.976;19.836;2023-03-23T16:29:55;9.80;;;6.30;;
34471;SDS011;20710;49.976;19.836;2023-03-23T16:35:59;8.90;;;6.20;;
34471;SDS011;20710;49.976;19.836;2023-03-23T16:42:02;12.50;;;5.60;;
34471;SDS011;20710;49.976;19.836;2023-03-23T16:48:05;8.70;;;5.10;;
34471;SDS011;20710;49.976;19.836;2023-03-23T16:54:08;10.80;;;5.60;;
34471;SDS011;20710;49.976;19.836;2023-03-23T17:00:34;9.90;;;5.00;;
34471;SDS011;20710;49.976;19.836;2023-03-23T17:06:36;9.10;;;4.60;;
34471;SDS011;20710;49.976;19.836;2023-03-23T17:13:22;7.20;;;4.20;;
34471;SDS011;20710;49.976;19.836;2023-03-23T17:19:25;9.20;;;4.80;;
34471;SDS011;20710;49.976;19.836;2023-03-23T17:25:27;9.20;;;4.50;;
34471;SDS011;20710;49.976;19.836;2023-03-23T17:31:35;10.10;;;5.40;;
34471;SDS011;20710;49.976;19.836;2023-03-23T17:37:37;11.00;;;6.00;;
34471;SDS011;20710;49.976;19.836;2023-03-23T17:43:39;9.50;;;5.90;;
34471;SDS011;20710;49.976;19.836;2023-03-23T17:49:46;12.70;;;6.30;;
34471;SDS011;20710;49.976;19.836;2023-03-23T17:56:08;10.20;;;6.20;;
34471;SDS011;20710;49.976;19.836;2023-03-23T18:02:10;14.50;;;7.00;;
34471;SDS011;20710;49.976;19.836;2023-03-23T18:08:14;16.30;;;7.60;;
34471;SDS011;20710;49.976;19.836;2023-03-23T18:14:17;15.20;;;7.30;;
34471;SDS011;20710;49.976;19.836;2023-03-23T18:20:22;17.10;;;7.80;;
34471;SDS011;20710;49.976;19.836;2023-03-23T18:26:25;15.30;;;8.10;;
34471;SDS011;20710;49.976;19.836;2023-03-23T18:32:27;17.50;;;9.30;;
34471;SDS011;20710;49.976;19.836;2023-03-23T18:38:30;21.30;;;8.70;;
34471;SDS011;20710;49.976;19.836;2023-03-23T18:44:40;25.10;;;10.70;;
34471;SDS011;20710;49.976;19.836;2023-03-23T18:51:01;19.30;;;11.20;;
34471;SDS011;20710;49.976;19.836;2023-03-23T18:57:03;21.20;;;11.00;;
34471;SDS011;20710;49.976;19.836;2023-03-23T19:03:06;19.20;;;11.00;;
34471;SDS011;20710;49.976;19.836;2023-03-23T19:09:08;21.20;;;10.80;;
34471;SDS011;20710;49.976;19.836;2023-03-23T19:15:17;23.70;;;12.30;;
34471;SDS011;20710;49.976;19.836;2023-03-23T19:21:19;26.30;;;14.00;;
34471;SDS011;20710;49.976;19.836;2023-03-23T19:27:20;32.60;;;15.20;;
34471;SDS011;20710;49.976;19.836;2023-03-23T19:33:23;27.50;;;14.60;;
34471;SDS011;20710;49.976;19.836;2023-03-23T19:39:25;24.90;;;12.70;;
34471;SDS011;20710;49.976;19.836;2023-03-23T19:45:27;24.50;;;13.50;;
34471;SDS011;20710;49.976;19.836;2023-03-23T19:51:29;21.10;;;11.10;;
34471;SDS011;20710;49.976;19.836;2023-03-23T19:57:31;22.00;;;11.20;;
34471;SDS011;20710;49.976;19.836;2023-03-23T20:03:53;12.70;;;7.40;;
34471;SDS011;20710;49.976;19.836;2023-03-23T20:09:56;13.80;;;7.90;;
34471;SDS011;20710;49.976;19.836;2023-03-23T20:15:58;16.10;;;7.80;;
34471;SDS011;20710;49.976;19.836;2023-03-23T20:22:19;14.80;;;7.80;;
34471;SDS011;20710;49.976;19.836;2023-03-23T20:28:30;15.80;;;8.00;;
34471;SDS011;20710;49.976;19.836;2023-03-23T20:34:35;11.80;;;7.60;;
34471;SDS011;20710;49.976;19.836;2023-03-23T20:40:36;14.30;;;8.10;;
34471;SDS011;20710;49.976;19.836;2023-03-23T20:46:44;11.20;;;7.50;;
34471;SDS011;20710;49.976;19.836;2023-03-23T20:58:50;12.30;;;7.20;;
34471;SDS011;20710;49.976;19.836;2023-03-23T21:04:52;12.40;;;6.90;;
34471;SDS011;20710;49.976;19.836;2023-03-23T21:10:54;13.80;;;6.60;;
34471;SDS011;20710;49.976;19.836;2023-03-23T21:16:57;10.40;;;5.30;;
34471;SDS011;20710;49.976;19.836;2023-03-23T21:23:40;11.60;;;6.00;;
34471;SDS011;20710;49.976;19.836;2023-03-23T21:29:55;7.90;;;5.10;;
34471;SDS011;20710;49.976;19.836;2023-03-23T21:36:52;9.10;;;4.90;;
34471;SDS011;20710;49.976;19.836;2023-03-23T21:42:57;8.50;;;4.90;;
34471;SDS011;20710;49.976;19.836;2023-03-23T21:48:59;10.70;;;5.70;;
34471;SDS011;20710;49.976;19.836;2023-03-23T21:55:01;10.10;;;4.90;;
34471;SDS011;20710;49.976;19.836;2023-03-23T22:01:06;12.20;;;5.60;;
34471;SDS011;20710;49.976;19.836;2023-03-23T22:07:10;12.20;;;5.90;;
34471;SDS011;20710;49.976;19.836;2023-03-23T22:13:53;8.80;;;5.50;;
34471;SDS011;20710;49.976;19.836;2023-03-23T22:19:56;10.80;;;5.20;;
34471;SDS011;20710;49.976;19.836;2023-03-23T22:25:58;9.10;;;5.60;;
34471;SDS011;20710;49.976;19.836;2023-03-23T22:32:00;12.30;;;5.10;;
34471;SDS011;20710;49.976;19.836;2023-03-23T22:38:01;12.50;;;5.10;;
34471;SDS011;20710;49.976;19.836;2023-03-23T22:44:49;8.20;;;4.80;;
34471;SDS011;20710;49.976;19.836;2023-03-23T22:50:51;8.30;;;4.50;;
34471;SDS011;20710;49.976;19.836;2023-03-23T22:56:53;13.50;;;5.20;;
34471;SDS011;20710;49.976;19.836;2023-03-23T23:02:55;11.50;;;5.50;;
34471;SDS011;20710;49.976;19.836;2023-03-23T23:08:57;14.60;;;5.40;;
34471;SDS011;20710;49.976;19.836;2023-03-23T23:14:59;11.10;;;5.50;;
34471;SDS011;20710;49.976;19.836;2023-03-23T23:21:07;11.80;;;6.30;;
34471;SDS011;20710;49.976;19.836;2023-03-23T23:27:45;10.70;;;6.30;;
34471;SDS011;20710;49.976;19.836;2023-03-23T23:33:47;11.00;;;5.60;;
34471;SDS011;20710;49.976;19.836;2023-03-23T23:39:50;12.20;;;5.90;;
34471;SDS011;20710;49.976;19.836;2023-03-23T23:46:16;12.00;;;6.00;;
34471;SDS011;20710;49.976;19.836;2023-03-23T23:52:20;9.70;;;5.70;;
34471;SDS011;20710;49.976;19.836;2023-03-23T23:58:22;10.50;;;5.10;;
